Friday, January 18, 2019, 3:11 AM EST
Back to Local

KDXR, Danbury Municipal Airport

Location: Danbury, CT, United States Lat: 41.367
Local Time: 3:11 AM EST ( 8:11 GMT) Lon: -73.483
Time Zone: US/Eastern Elev: 459 ft

Show me the last for .
Show Decoded

2019-01-18 02:53 METAR KDXR 180753Z AUTO 06003KT 6SM HZ OVC042 M04/M09 A3018 RMK AO2 SNE44 SLP226
                 P0000 T10441094 =
2019-01-18 01:53 METAR KDXR 180653Z AUTO 00000KT 6SM -SN OVC033 M04/M11 A3020 RMK AO2 SNB50
                 SLP233 P0000 T10391111 =
2019-01-18 00:53 METAR KDXR 180553Z AUTO 00000KT 10SM OVC055 M03/M12 A3021 RMK AO2 SLP235
                 T10331122 11033 21039 58016 =
2019-01-17 23:53 METAR KDXR 180453Z AUTO 00000KT 10SM BKN075 OVC090 M03/M12 A3024 RMK AO2 SLP245
                 T10331117 410111078 =
2019-01-17 22:53 METAR KDXR 180353Z AUTO 00000KT 10SM OVC100 M03/M13 A3025 RMK AO2 SLP247
                 T10331133 =
2019-01-17 21:53 METAR KDXR 180253Z 11003KT 10SM OVC090 M03/M14 A3026 RMK AO2 SLP253 T10331139
                 58016 =
2019-01-17 20:53 METAR KDXR 180153Z 17004KT 10SM OVC110 M03/M14 A3028 RMK AO2 SLP261 T10331139 =
2019-01-17 19:53 METAR KDXR 180053Z 14004KT 10SM SCT120 M04/M13 A3029 RMK AO2 SLP265 T10391133 =
2019-01-17 18:53 METAR KDXR 172353Z 00000KT 10SM OVC120 M03/M13 A3031 RMK AO2 SLP269 T10331133
                 11011 21039 53004 =
2019-01-17 17:53 METAR KDXR 172253Z 15004KT 10SM CLR M03/M16 A3030 RMK AO2 SLP266 T10331156 =
2019-01-17 16:53 METAR KDXR 172153Z 16003KT 10SM CLR M02/M20 A3028 RMK AO2 SLP260 T10221200 =
2019-01-17 15:53 METAR KDXR 172053Z 07003KT 10SM SCT120 M02/M19 A3029 RMK AO2 SLP264 T10221194
                 56018 =
2019-01-17 14:53 METAR KDXR 171953Z VRB03KT 10SM CLR M02/M19 A3032 RMK AO2 SLP272 T10171189 =
2019-01-17 13:53 METAR KDXR 171853Z 11004KT 10SM CLR M02/M19 A3032 RMK AO2 SLP271 T10221189 =
2019-01-17 12:53 METAR KDXR 171753Z 00000KT 10SM CLR M03/M18 A3035 RMK AO2 SLP282 T10281183 11022
                 21078 58020 =
2019-01-17 11:53 METAR KDXR 171653Z 04004KT 10SM CLR M03/M18 A3038 RMK AO2 SLP293 T10331183 =
2019-01-17 10:53 METAR KDXR 171553Z 03006KT 10SM CLR M05/M18 A3040 RMK AO2 SLP301 T10501183 =
2019-01-17 09:53 METAR KDXR 171453Z 03007KT 10SM CLR M06/M17 A3041 RMK AO2 SLP302 T10611167 52014
                 =
2019-01-17 08:53 METAR KDXR 171353Z VRB04KT 10SM CLR M07/M16 A3040 RMK AO2 SLP299 T10671161 =
2019-01-17 07:53 METAR KDXR 171253Z 33005KT 10SM CLR M07/M16 A3037 RMK AO2 SLP291 T10721161 =
2019-01-17 06:53 METAR KDXR 171153Z AUTO 34007KT 10SM CLR M07/M16 A3037 RMK AO2 SLP288 T10721161
                 11033 21072 53024 =
2019-01-17 05:53 METAR KDXR 171053Z AUTO 36007KT 10SM CLR M07/M15 A3033 RMK AO2 SLP276 T10671150
                 =
2019-01-17 04:53 METAR KDXR 170953Z AUTO 35006KT 10SM CLR M06/M13 A3031 RMK AO2 SLP267 T10561133
                 =
2019-01-17 03:53 METAR KDXR 170853Z AUTO 33005KT 10SM CLR M06/M14 A3029 RMK AO2 SLP263 T10561139
                 51018 =

Support USWX by starting your Amazon purchase here.